Time;durP1;ratioP1;P1;durP2;ratioP2;P2;SDS_P1;SDS_P2;PMS_P1;PMS_P2;Temp;Humidity;BMP_temperature;BMP_pressure;BME280_temperature;BME280_humidity;BME280_pressure;Samples;Min_cycle;Max_cycle;Signal;HPM_P1;HPM_P2
2022/03/19 00:00:46;;;;;;;41.15;11.63;;;4.30;99.90;;;;;;5009525;28;20053;-68
2022/03/19 00:03:12;;;;;;;38.22;10.93;;;4.30;99.90;;;;;;5014418;28;20128;-69
2022/03/19 00:05:39;;;;;;;33.72;10.48;;;4.30;99.90;;;;;;5012007;28;20042;-70
2022/03/19 00:08:04;;;;;;;26.85;9.45;;;4.20;99.90;;;;;;5012204;28;20052;-69
2022/03/19 00:10:31;;;;;;;34.10;10.48;;;4.20;99.90;;;;;;5012595;28;20125;-70
2022/03/19 00:12:58;;;;;;;31.80;10.32;;;4.20;99.90;;;;;;5010996;28;21055;-69
2022/03/19 00:15:24;;;;;;;26.00;9.25;;;4.20;99.90;;;;;;5017838;28;20053;-68
2022/03/19 00:17:52;;;;;;;30.20;10.77;;;4.10;99.90;;;;;;5020605;28;20044;-68
2022/03/19 00:20:18;;;;;;;24.45;10.43;;;4.10;99.90;;;;;;5021369;28;20089;-68
2022/03/19 00:22:44;;;;;;;21.83;9.38;;;4.10;99.90;;;;;;5013763;28;20123;-68
2022/03/19 00:25:12;;;;;;;33.60;10.27;;;4.10;99.90;;;;;;5016250;28;20049;-68
2022/03/19 00:27:40;;;;;;;29.43;9.87;;;4.00;99.90;;;;;;5011914;28;20138;-68
2022/03/19 00:30:07;;;;;;;29.77;10.95;;;4.00;99.90;;;;;;5012463;28;20049;-68
2022/03/19 00:32:33;;;;;;;25.40;10.15;;;4.00;99.90;;;;;;5012823;28;20411;-67
2022/03/19 00:34:59;;;;;;;26.92;10.63;;;3.90;99.90;;;;;;5011044;28;20088;-67
2022/03/19 00:37:25;;;;;;;22.65;10.27;;;3.90;99.90;;;;;;5011705;28;20498;-69
2022/03/19 00:39:51;;;;;;;34.08;11.65;;;3.90;99.90;;;;;;5002417;28;20052;-67
2022/03/19 00:42:17;;;;;;;27.98;9.13;;;3.90;99.90;;;;;;5011404;28;20042;-67
2022/03/19 00:44:44;;;;;;;26.80;11.23;;;3.90;99.90;;;;;;5011064;28;20437;-68
2022/03/19 00:47:10;;;;;;;30.38;12.63;;;3.90;99.90;;;;;;5010735;28;20053;-67
2022/03/19 00:49:36;;;;;;;38.17;11.70;;;3.80;99.90;;;;;;5012335;28;20566;-67
2022/03/19 00:52:03;;;;;;;30.85;10.52;;;3.80;99.90;;;;;;5006280;28;20133;-67
2022/03/19 00:54:28;;;;;;;20.70;9.35;;;3.80;99.90;;;;;;5004780;28;20111;-68
2022/03/19 00:56:54;;;;;;;32.45;11.02;;;3.80;99.90;;;;;;5010177;28;20067;-67
2022/03/19 00:59:20;;;;;;;32.88;10.70;;;3.80;99.90;;;;;;5011726;28;20034;-67
2022/03/19 01:01:46;;;;;;;33.67;12.55;;;3.80;99.90;;;;;;4993444;28;20057;-68
2022/03/19 01:04:11;;;;;;;24.25;10.60;;;3.70;99.90;;;;;;5011619;28;20054;-68
2022/03/19 01:06:37;;;;;;;31.42;10.45;;;3.70;99.90;;;;;;5015370;28;20041;-68
2022/03/19 01:09:03;;;;;;;35.17;13.07;;;3.70;99.90;;;;;;5009948;28;20042;-68
2022/03/19 01:11:29;;;;;;;39.38;11.82;;;3.70;99.90;;;;;;5017505;28;20054;-67
2022/03/19 01:13:55;;;;;;;25.30;8.77;;;3.70;99.90;;;;;;5022720;28;20056;-68
2022/03/19 01:16:23;;;;;;;35.03;11.50;;;3.70;99.90;;;;;;5010782;28;20044;-67
2022/03/19 01:18:49;;;;;;;41.15;10.68;;;3.70;99.90;;;;;;5006611;28;20085;-68
2022/03/19 01:21:18;;;;;;;20.85;9.85;;;3.70;99.90;;;;;;5017660;28;20088;-67
2022/03/19 01:23:44;;;;;;;26.33;8.73;;;3.70;99.90;;;;;;5009297;28;20046;-68
2022/03/19 01:26:10;;;;;;;16.88;8.55;;;3.60;99.90;;;;;;5010934;28;20492;-67
2022/03/19 01:28:38;;;;;;;27.75;10.80;;;3.60;99.90;;;;;;5014006;28;20042;-67
2022/03/19 01:31:03;;;;;;;30.17;9.68;;;3.60;99.90;;;;;;5011930;28;20612;-67
2022/03/19 01:33:30;;;;;;;29.38;10.18;;;3.60;99.90;;;;;;5010632;28;20112;-67
2022/03/19 01:35:56;;;;;;;31.85;9.32;;;3.60;99.90;;;;;;5006850;28;20037;-67
2022/03/19 01:38:22;;;;;;;35.42;9.93;;;3.60;99.90;;;;;;5005801;28;20510;-68
2022/03/19 01:40:47;;;;;;;22.63;9.95;;;3.50;99.90;;;;;;5006967;28;20476;-68
2022/03/19 01:43:13;;;;;;;30.90;10.45;;;3.50;99.90;;;;;;5009834;28;20040;-67
2022/03/19 01:45:38;;;;;;;23.85;10.20;;;3.50;99.90;;;;;;5004433;28;20058;-68
2022/03/19 01:48:04;;;;;;;30.23;10.25;;;3.40;99.90;;;;;;5006080;28;20062;-67
2022/03/19 01:50:30;;;;;;;39.95;11.15;;;3.40;99.90;;;;;;5004569;28;20061;-67
2022/03/19 01:52:56;;;;;;;27.70;9.57;;;3.40;99.90;;;;;;5007030;28;20122;-68
2022/03/19 01:55:24;;;;;;;21.95;9.93;;;3.40;99.90;;;;;;5008467;28;20045;-68
2022/03/19 01:57:51;;;;;;;32.97;9.90;;;3.40;99.90;;;;;;5009410;28;20496;-68
2022/03/19 02:00:21;;;;;;;32.53;11.07;;;3.40;99.90;;;;;;5002128;28;20068;-67
2022/03/19 02:02:48;;;;;;;27.20;10.32;;;3.40;99.90;;;;;;5010809;28;20655;-67
2022/03/19 02:05:17;;;;;;;24.67;9.57;;;3.30;99.90;;;;;;5008405;28;20045;-68
2022/03/19 02:07:43;;;;;;;20.20;9.68;;;3.30;99.90;;;;;;5009471;28;20056;-68
2022/03/19 02:10:10;;;;;;;25.48;8.45;;;3.30;99.90;;;;;;5007315;28;20069;-67
2022/03/19 02:12:37;;;;;;;28.45;9.57;;;3.30;99.90;;;;;;5009745;28;20049;-67
2022/03/19 02:15:04;;;;;;;25.08;9.10;;;3.20;99.90;;;;;;5007401;28;20043;-67
2022/03/19 02:17:29;;;;;;;20.00;9.18;;;3.20;99.90;;;;;;5015421;28;20107;-67
2022/03/19 02:19:56;;;;;;;29.30;11.30;;;3.20;99.90;;;;;;5014061;28;20565;-67
2022/03/19 02:22:24;;;;;;;25.90;9.73;;;3.20;99.90;;;;;;5011889;28;20042;-67
2022/03/19 02:27:35;;;;;;;32.45;10.60;;;3.20;99.90;;;;;;5012891;28;20132;-67
2022/03/19 02:30:03;;;;;;;28.08;12.52;;;3.10;99.90;;;;;;5010111;28;20048;-67
2022/03/19 02:32:29;;;;;;;24.17;10.63;;;3.10;99.90;;;;;;5012936;28;20045;-67
2022/03/19 02:34:55;;;;;;;28.55;9.88;;;3.20;99.90;;;;;;5017423;28;20045;-67
2022/03/19 02:37:21;;;;;;;23.02;10.25;;;3.20;99.90;;;;;;5002600;28;20081;-67
2022/03/19 02:39:46;;;;;;;26.42;10.75;;;3.20;99.90;;;;;;5003402;28;20049;-67
2022/03/19 02:42:17;;;;;;;29.52;9.55;;;3.20;99.90;;;;;;5006350;28;20565;-67
2022/03/19 02:44:43;;;;;;;28.92;10.90;;;3.20;99.90;;;;;;5002770;28;20061;-67
2022/03/19 02:47:09;;;;;;;23.52;11.02;;;3.20;99.90;;;;;;5003355;28;20054;-67
2022/03/19 02:49:35;;;;;;;27.70;12.15;;;3.20;99.90;;;;;;5004682;28;20176;-67
2022/03/19 02:52:01;;;;;;;26.23;11.10;;;3.20;99.90;;;;;;5008296;28;20073;-67
2022/03/19 02:54:30;;;;;;;60.45;12.50;;;3.20;99.90;;;;;;5012880;28;20048;-67
2022/03/19 02:56:57;;;;;;;43.00;12.38;;;3.20;99.90;;;;;;5006965;28;20747;-68
2022/03/19 02:59:26;;;;;;;30.45;10.43;;;3.20;99.90;;;;;;5002858;28;20076;-67
2022/03/19 03:01:54;;;;;;;29.15;12.70;;;3.20;99.90;;;;;;5009462;28;20053;-67
2022/03/19 03:04:20;;;;;;;33.60;12.07;;;3.10;99.90;;;;;;5014475;28;21895;-67
2022/03/19 03:06:49;;;;;;;25.95;12.05;;;3.20;99.90;;;;;;5014761;28;20053;-67
2022/03/19 03:09:18;;;;;;;39.05;12.63;;;3.20;99.90;;;;;;4991292;28;20042;-67
2022/03/19 03:11:44;;;;;;;32.80;12.05;;;3.20;99.90;;;;;;5010889;28;20110;-67
2022/03/19 03:14:10;;;;;;;27.08;11.43;;;3.20;99.90;;;;;;5004842;28;20077;-67
2022/03/19 03:16:37;;;;;;;37.88;12.93;;;3.20;99.90;;;;;;5001842;28;20046;-67
2022/03/19 03:19:07;;;;;;;27.17;11.13;;;3.20;99.90;;;;;;5007933;28;20045;-67
2022/03/19 03:21:34;;;;;;;22.73;9.85;;;3.20;99.90;;;;;;5005440;28;20518;-67
2022/03/19 03:24:01;;;;;;;29.92;11.65;;;3.20;99.90;;;;;;5006319;28;20042;-67
2022/03/19 03:26:28;;;;;;;31.25;12.55;;;3.20;99.90;;;;;;5009547;28;20046;-66
2022/03/19 03:28:54;;;;;;;30.58;10.98;;;3.10;99.90;;;;;;5014547;28;20049;-66
2022/03/19 03:31:20;;;;;;;24.23;11.55;;;3.10;99.90;;;;;;5016203;28;20042;-66
2022/03/19 03:33:46;;;;;;;33.45;11.18;;;3.00;99.90;;;;;;5008295;28;20038;-68
2022/03/19 03:36:12;;;;;;;32.22;12.73;;;3.00;99.90;;;;;;5000588;28;20415;-67
2022/03/19 03:38:39;;;;;;;32.58;12.70;;;2.90;99.90;;;;;;5009245;28;20037;-67
2022/03/19 03:41:05;;;;;;;26.60;12.02;;;2.90;99.90;;;;;;5006393;28;20097;-67
2022/03/19 03:43:31;;;;;;;34.70;10.52;;;2.90;99.90;;;;;;5005886;28;20065;-67
2022/03/19 03:45:57;;;;;;;30.50;10.55;;;2.90;99.90;;;;;;5007680;28;20097;-67
2022/03/19 03:48:22;;;;;;;33.67;12.15;;;2.80;99.90;;;;;;5003883;28;20073;-67
2022/03/19 03:50:52;;;;;;;38.47;11.63;;;2.80;99.90;;;;;;5005201;28;20535;-67
2022/03/19 03:53:18;;;;;;;31.80;12.98;;;2.80;99.90;;;;;;5007425;28;20065;-67
2022/03/19 03:55:44;;;;;;;32.25;12.57;;;2.80;99.90;;;;;;5013799;28;20495;-67
2022/03/19 03:58:11;;;;;;;27.27;12.88;;;2.70;99.90;;;;;;5009127;28;20392;-67
2022/03/19 04:00:37;;;;;;;37.70;13.85;;;2.60;99.90;;;;;;5000693;28;20053;-67
2022/03/19 04:03:04;;;;;;;37.67;13.48;;;2.60;99.90;;;;;;5008197;28;20038;-67
2022/03/19 04:05:30;;;;;;;36.33;13.20;;;2.60;99.90;;;;;;4990694;28;20042;-67
2022/03/19 04:07:57;;;;;;;31.73;13.82;;;2.60;99.90;;;;;;5002579;28;20045;-67
2022/03/19 04:10:22;;;;;;;24.90;13.10;;;2.60;99.90;;;;;;5006397;28;20042;-67
2022/03/19 04:12:48;;;;;;;23.63;13.75;;;2.60;99.90;;;;;;5002218;28;20753;-67
2022/03/19 04:15:14;;;;;;;43.65;13.00;;;2.60;99.90;;;;;;5006929;28;20076;-67
2022/03/19 04:17:43;;;;;;;27.42;12.93;;;2.60;99.90;;;;;;5014793;28;20041;-67
2022/03/19 04:20:09;;;;;;;;;;;2.60;99.90;;;;;;5012027;28;20055;-67
2022/03/19 04:22:42;;;;;;;35.53;14.00;;;2.60;99.90;;;;;;5008389;28;19929;-67
2022/03/19 04:25:16;;;;;;;37.13;12.50;;;2.60;99.90;;;;;;5007736;28;20065;-67
2022/03/19 04:27:43;;;;;;;32.70;14.57;;;2.60;99.90;;;;;;5011886;28;20483;-67
2022/03/19 04:30:13;;;;;;;29.80;13.10;;;2.60;99.90;;;;;;5014463;28;20056;-67
2022/03/19 04:32:44;;;;;;;32.33;13.45;;;2.60;99.90;;;;;;5009786;28;20077;-67
2022/03/19 04:38:26;;;;;;;42.38;15.32;;;2.60;99.90;;;;;;5004678;28;20503;-67
2022/03/19 04:40:52;;;;;;;29.10;15.20;;;2.60;99.90;;;;;;4998784;28;20411;-66
2022/03/19 04:43:18;;;;;;;34.83;13.95;;;2.60;99.90;;;;;;5010808;28;20057;-67
2022/03/19 04:45:44;;;;;;;38.28;16.10;;;2.60;99.90;;;;;;5007061;28;20056;-67
2022/03/19 04:48:10;;;;;;;26.75;14.05;;;2.60;99.90;;;;;;5009067;28;20058;-67
2022/03/19 04:50:41;;;;;;;27.25;15.35;;;2.60;99.90;;;;;;5010149;28;20052;-67
2022/03/19 04:53:07;;;;;;;30.42;13.85;;;2.60;99.90;;;;;;5007002;28;20514;-68
2022/03/19 04:55:35;;;;;;;32.53;15.48;;;2.50;99.90;;;;;;5009316;28;20046;-66
2022/03/19 04:58:03;;;;;;;34.83;15.27;;;2.50;99.90;;;;;;4999584;28;20525;-66
2022/03/19 05:00:29;;;;;;;33.00;15.38;;;2.50;99.90;;;;;;5009669;28;20053;-66
2022/03/19 05:02:55;;;;;;;26.35;14.30;;;2.40;99.90;;;;;;5010589;28;20414;-66
2022/03/19 05:05:24;;;;;;;30.45;15.23;;;2.40;99.90;;;;;;5007061;28;20879;-67
2022/03/19 05:07:53;;;;;;;40.80;17.50;;;2.40;99.90;;;;;;4999141;28;20525;-67
2022/03/19 05:13:03;;;;;;;42.13;17.50;;;2.40;99.90;;;;;;5004840;28;19921;-67
2022/03/19 05:15:28;;;;;;;37.17;16.83;;;2.40;99.90;;;;;;5003902;28;20116;-67
2022/03/19 05:17:54;;;;;;;32.35;16.08;;;2.50;99.90;;;;;;5013604;28;20046;-67
2022/03/19 05:20:20;;;;;;;33.33;16.20;;;2.50;99.90;;;;;;5005864;28;20146;-67
2022/03/19 05:22:45;;;;;;;60.20;19.58;;;2.50;99.90;;;;;;5001561;28;20137;-67
2022/03/19 05:25:11;;;;;;;43.53;17.95;;;2.50;99.90;;;;;;5005845;28;20056;-67
2022/03/19 05:27:37;;;;;;;38.50;16.40;;;2.40;99.90;;;;;;5002142;28;20451;-67
2022/03/19 05:30:05;;;;;;;36.35;18.08;;;2.40;99.90;;;;;;5004757;28;20050;-68
2022/03/19 05:32:30;;;;;;;31.85;16.92;;;2.40;99.90;;;;;;5009369;28;20106;-68
2022/03/19 05:34:59;;;;;;;42.97;17.92;;;2.40;99.90;;;;;;5000365;28;20107;-67
2022/03/19 05:37:25;;;;;;;38.90;16.83;;;2.40;99.90;;;;;;5002210;28;20415;-67
2022/03/19 05:39:54;;;;;;;43.40;17.55;;;2.40;99.90;;;;;;5002988;28;20033;-67
2022/03/19 05:42:20;;;;;;;37.28;17.10;;;2.40;99.90;;;;;;5003348;28;20041;-67
2022/03/19 05:44:46;;;;;;;35.30;17.88;;;2.50;99.90;;;;;;5000566;28;20057;-67
2022/03/19 05:47:12;;;;;;;38.50;18.23;;;2.40;99.90;;;;;;5002653;28;20050;-67
2022/03/19 05:49:37;;;;;;;35.75;16.52;;;2.50;99.90;;;;;;5003608;28;20387;-67
2022/03/19 05:52:03;;;;;;;48.97;17.23;;;2.50;99.90;;;;;;5002312;28;20161;-67
2022/03/19 05:54:29;;;;;;;41.10;17.33;;;2.50;99.90;;;;;;5003262;28;20050;-68
2022/03/19 05:56:55;;;;;;;41.80;17.35;;;2.60;99.90;;;;;;5003585;28;20049;-68
2022/03/19 05:59:21;;;;;;;39.83;16.67;;;2.60;99.90;;;;;;5002072;28;20038;-68
2022/03/19 06:01:47;;;;;;;45.75;15.98;;;2.70;99.90;;;;;;5001244;28;20075;-68
2022/03/19 06:04:13;;;;;;;34.85;18.80;;;2.80;99.90;;;;;;5002772;28;20701;-67
2022/03/19 06:06:39;;;;;;;34.83;16.73;;;2.80;99.90;;;;;;5002425;28;20057;-67
2022/03/19 06:09:04;;;;;;;30.02;15.82;;;2.90;99.90;;;;;;5003278;28;20048;-67
2022/03/19 06:11:31;;;;;;;28.63;15.45;;;3.00;99.90;;;;;;5002977;28;20054;-67
2022/03/19 06:13:56;;;;;;;32.08;16.85;;;3.10;99.90;;;;;;5002078;28;20064;-67
2022/03/19 06:16:22;;;;;;;41.17;16.95;;;3.20;99.90;;;;;;5001930;28;21017;-68
2022/03/19 06:18:50;;;;;;;31.88;15.65;;;3.30;99.90;;;;;;5001827;28;20396;-68
2022/03/19 06:21:17;;;;;;;27.23;15.57;;;3.40;99.90;;;;;;4999947;28;20915;-67
2022/03/19 06:23:45;;;;;;;39.60;16.20;;;3.40;99.90;;;;;;5001091;28;20042;-68
2022/03/19 06:26:11;;;;;;;32.45;14.85;;;3.50;99.90;;;;;;5017693;28;20054;-69
2022/03/19 06:28:37;;;;;;;34.92;16.02;;;3.60;99.90;;;;;;5002075;28;20092;-69
2022/03/19 06:31:03;;;;;;;39.47;15.85;;;3.70;99.90;;;;;;5001676;28;20053;-70
2022/03/19 06:33:28;;;;;;;34.72;17.70;;;3.60;99.90;;;;;;5002574;28;20874;-69
2022/03/19 06:38:38;;;;;;;37.25;18.08;;;3.70;99.90;;;;;;5001799;28;20133;-69
2022/03/19 06:41:04;;;;;;;35.67;16.85;;;3.80;99.90;;;;;;5001556;28;20095;-69
2022/03/19 06:43:31;;;;;;;38.70;16.27;;;3.90;99.90;;;;;;5001215;28;20049;-69
2022/03/19 06:46:00;;;;;;;38.33;16.70;;;3.90;99.90;;;;;;5000510;28;20578;-68
2022/03/19 06:48:26;;;;;;;38.83;19.02;;;4.00;99.90;;;;;;5003112;28;20088;-68
2022/03/19 06:50:54;;;;;;;37.45;16.17;;;4.10;99.90;;;;;;5001872;28;20056;-68
2022/03/19 06:53:27;;;;;;;30.52;17.27;;;4.20;99.90;;;;;;5001792;28;20064;-68
2022/03/19 06:55:53;;;;;;;35.97;15.98;;;4.30;99.90;;;;;;5002384;28;20052;-68
2022/03/19 06:58:21;;;;;;;41.33;16.92;;;4.30;99.90;;;;;;4998552;28;20513;-68
2022/03/19 07:00:47;;;;;;;32.25;16.10;;;4.50;99.90;;;;;;5000457;28;20768;-68
2022/03/19 07:03:13;;;;;;;49.55;19.20;;;4.60;99.90;;;;;;5002492;28;20104;-69
2022/03/19 07:05:39;;;;;;;34.38;17.70;;;4.80;99.90;;;;;;5001731;28;20050;-69
2022/03/19 07:08:08;;;;;;;37.45;16.92;;;4.90;99.90;;;;;;5000165;28;20065;-68
2022/03/19 07:10:34;;;;;;;41.40;17.15;;;5.10;99.90;;;;;;5001276;28;20093;-68
2022/03/19 07:13:00;;;;;;;33.42;15.93;;;5.20;99.90;;;;;;5001882;28;20787;-68
2022/03/19 07:15:29;;;;;;;33.95;14.82;;;5.50;99.90;;;;;;5001420;28;20046;-67
2022/03/19 07:18:02;;;;;;;31.02;15.02;;;5.60;99.90;;;;;;5002407;28;20096;-68
2022/03/19 07:20:30;;;;;;;27.48;16.40;;;5.70;99.90;;;;;;4999795;28;20049;-68
2022/03/19 07:23:01;;;;;;;31.70;17.15;;;5.80;99.90;;;;;;5002188;28;20519;-67
2022/03/19 07:25:31;;;;;;;34.20;17.73;;;5.90;99.90;;;;;;5003057;28;20575;-68
2022/03/19 07:28:04;;;;;;;35.45;17.67;;;5.90;99.90;;;;;;5003134;28;20044;-68
2022/03/19 07:30:30;;;;;;;42.53;17.75;;;5.90;99.90;;;;;;5003468;28;20045;-68
2022/03/19 07:32:57;;;;;;;27.33;16.05;;;6.00;99.90;;;;;;5001675;28;20341;-67
2022/03/19 07:35:23;;;;;;;39.33;18.17;;;6.10;99.90;;;;;;5000499;28;20050;-69
2022/03/19 07:37:49;;;;;;;33.40;18.27;;;6.30;99.90;;;;;;5000951;28;20053;-68
2022/03/19 07:41:45;;;;;;;37.28;16.85;;;6.40;99.90;;;;;;5002138;28;20053;-68
2022/03/19 07:43:07;;;;;;;34.05;17.23;;;6.50;99.90;;;;;;4999759;28;20069;-68
2022/03/19 07:45:34;;;;;;;37.90;16.67;;;6.70;99.90;;;;;;5001025;28;20094;-68
2022/03/19 07:48:01;;;;;;;31.20;15.02;;;6.70;99.90;;;;;;5000916;28;20570;-68
2022/03/19 07:50:27;;;;;;;33.58;15.43;;;6.90;99.90;;;;;;5000972;28;20112;-67
2022/03/19 07:52:52;;;;;;;37.25;16.92;;;7.00;99.90;;;;;;5006908;28;20057;-67
2022/03/19 07:55:19;;;;;;;29.13;15.82;;;7.10;99.90;;;;;;5002436;28;20046;-67
2022/03/19 07:57:44;;;;;;;32.70;16.75;;;7.20;99.90;;;;;;5004209;28;20041;-68
2022/03/19 08:00:12;;;;;;;34.13;17.38;;;7.30;99.90;;;;;;5005568;28;20041;-68
2022/03/19 08:02:38;;;;;;;41.42;15.88;;;7.40;99.90;;;;;;5005288;28;20038;-69
2022/03/19 08:05:05;;;;;;;35.03;16.60;;;7.50;99.90;;;;;;5006735;28;20554;-69
2022/03/19 08:07:31;;;;;;;31.80;13.50;;;7.60;99.90;;;;;;5011359;28;20042;-68
2022/03/19 08:09:57;;;;;;;37.63;13.82;;;7.80;99.90;;;;;;5010068;28;20447;-68
2022/03/19 08:12:24;;;;;;;34.25;13.68;;;7.90;99.90;;;;;;5005774;28;20077;-69
2022/03/19 08:14:51;;;;;;;28.55;13.55;;;8.00;99.90;;;;;;5011451;28;20057;-67
2022/03/19 08:17:17;;;;;;;27.27;13.52;;;8.10;99.90;;;;;;5006898;28;20130;-67
2022/03/19 08:19:43;;;;;;;25.58;12.45;;;8.20;99.90;;;;;;5010261;28;20061;-67
2022/03/19 08:22:09;;;;;;;32.63;13.70;;;8.20;99.90;;;;;;5010843;28;20120;-67
2022/03/19 08:24:38;;;;;;;26.95;12.90;;;8.30;99.90;;;;;;5011030;28;20132;-67
2022/03/19 08:27:04;;;;;;;18.13;10.75;;;8.40;99.90;;;;;;5008731;28;20042;-67
2022/03/19 08:29:30;;;;;;;53.78;14.23;;;8.50;99.90;;;;;;5003915;28;20044;-68
2022/03/19 08:31:56;;;;;;;26.58;10.95;;;8.60;99.90;;;;;;5006922;28;20125;-67
2022/03/19 08:34:25;;;;;;;26.75;11.40;;;8.70;99.90;;;;;;5003225;28;20187;-67
2022/03/19 08:36:52;;;;;;;18.27;10.68;;;8.70;99.90;;;;;;5009612;28;20097;-67
2022/03/19 08:42:02;;;;;;;22.42;9.32;;;8.80;99.90;;;;;;4992812;28;20050;-67
2022/03/19 08:44:28;;;;;;;30.90;10.65;;;8.90;99.90;;;;;;5010276;28;20068;-67
2022/03/19 08:46:53;;;;;;;33.03;10.38;;;9.10;99.90;;;;;;5003097;28;20148;-67
2022/03/19 08:49:20;;;;;;;24.42;8.77;;;9.10;99.90;;;;;;5000366;28;20061;-67
2022/03/19 08:51:45;;;;;;;28.35;10.25;;;9.10;99.90;;;;;;5007825;28;20041;-67
2022/03/19 08:54:15;;;;;;;20.00;8.63;;;9.10;99.90;;;;;;5004118;28;20038;-67
2022/03/19 08:56:41;;;;;;;26.08;9.45;;;9.10;99.90;;;;;;5003466;28;20042;-68
2022/03/19 08:59:08;;;;;;;20.48;8.18;;;9.20;99.90;;;;;;5007744;28;20165;-67
2022/03/19 09:01:35;;;;;;;22.07;8.60;;;9.30;99.90;;;;;;5011027;28;20109;-67
2022/03/19 09:04:01;;;;;;;22.58;8.68;;;9.40;99.90;;;;;;5010756;28;20518;-67
2022/03/19 09:06:26;;;;;;;22.35;7.05;;;9.50;99.90;;;;;;5009898;28;20507;-67
2022/03/19 09:08:52;;;;;;;25.55;8.13;;;9.50;99.90;;;;;;5009547;28;20747;-67
2022/03/19 09:11:19;;;;;;;19.98;7.40;;;9.60;99.90;;;;;;5010684;28;20082;-67
2022/03/19 09:13:49;;;;;;;17.30;7.55;;;9.60;99.90;;;;;;5007189;28;20048;-66
2022/03/19 09:16:15;;;;;;;25.55;8.48;;;9.60;99.90;;;;;;5004043;28;20049;-67
2022/03/19 09:18:41;;;;;;;23.88;7.90;;;9.50;99.90;;;;;;5009307;28;20578;-67
2022/03/19 09:21:07;;;;;;;21.27;7.18;;;9.70;99.90;;;;;;5010294;28;20056;-67
2022/03/19 09:23:33;;;;;;;22.17;7.22;;;9.70;99.90;;;;;;5007740;28;20844;-67
2022/03/19 09:25:58;;;;;;;19.73;6.43;;;9.70;99.90;;;;;;5007346;28;20035;-67
2022/03/19 09:28:24;;;;;;;26.27;7.88;;;9.70;99.90;;;;;;5004908;28;20073;-67
2022/03/19 09:30:51;;;;;;;20.23;6.32;;;9.70;99.90;;;;;;5006721;28;20048;-67
2022/03/19 09:33:17;;;;;;;14.70;6.63;;;9.70;99.90;;;;;;5002807;28;20124;-67
2022/03/19 09:35:43;;;;;;;13.20;6.50;;;9.90;99.90;;;;;;4997606;28;21058;-68
2022/03/19 09:38:09;;;;;;;20.70;7.18;;;9.80;98.30;;;;;;5008173;28;20050;-66
2022/03/19 09:40:34;;;;;;;24.90;6.68;;;9.90;97.80;;;;;;5000878;28;20052;-67
2022/03/19 09:43:00;;;;;;;16.77;7.68;;;9.90;99.50;;;;;;5012374;28;20073;-67
2022/03/19 09:45:27;;;;;;;31.48;7.82;;;10.10;99.10;;;;;;5004176;28;21659;-66
2022/03/19 09:47:54;;;;;;;36.28;8.02;;;10.20;94.80;;;;;;5008383;28;20050;-66
2022/03/19 09:50:21;;;;;;;12.27;6.80;;;10.30;96.50;;;;;;5010026;28;20100;-67
2022/03/19 09:52:51;;;;;;;15.82;7.30;;;10.40;97.20;;;;;;5009664;28;20518;-67
2022/03/19 09:55:18;;;;;;;18.77;7.70;;;10.50;94.60;;;;;;5013007;28;20046;-67
2022/03/19 09:57:45;;;;;;;19.58;7.45;;;10.70;98.00;;;;;;5010652;28;20038;-67
2022/03/19 10:00:12;;;;;;;17.63;6.97;;;10.50;97.10;;;;;;5005089;28;20038;-67
2022/03/19 10:02:57;;;;;;;12.55;6.47;;;10.50;94.80;;;;;;5008740;28;20049;-67
2022/03/19 10:10:55;;;;;;;17.00;7.50;;;10.60;92.20;;;;;;4999347;28;20165;-67
2022/03/19 10:13:23;;;;;;;15.45;6.45;;;10.60;91.70;;;;;;5008775;28;20495;-67
2022/03/19 10:15:48;;;;;;;16.55;5.88;;;10.70;92.50;;;;;;5000707;28;20104;-67
2022/03/19 10:18:14;;;;;;;18.45;6.82;;;10.70;90.90;;;;;;5013016;28;20042;-68
2022/03/19 10:20:40;;;;;;;20.58;6.90;;;10.90;90.30;;;;;;4992020;28;20046;-67
2022/03/19 10:23:05;;;;;;;28.40;7.10;;;10.90;88.80;;;;;;5001263;28;20046;-68
2022/03/19 10:25:31;;;;;;;21.25;8.55;;;11.00;90.90;;;;;;5004419;28;20038;-67
2022/03/19 10:28:02;;;;;;;13.65;7.32;;;11.00;88.40;;;;;;5009214;28;20048;-68
2022/03/19 10:30:38;;;;;;;20.83;6.82;;;11.00;88.50;;;;;;5005326;28;20057;-68
2022/03/19 10:33:07;;;;;;;27.10;7.55;;;11.10;83.30;;;;;;5002350;28;20395;-68
2022/03/19 10:35:41;;;;;;;17.02;6.63;;;11.00;84.70;;;;;;5001515;28;20440;-68
2022/03/19 10:38:23;;;;;;;16.60;5.53;;;11.10;80.70;;;;;;5002144;28;20057;-68
2022/03/19 10:40:53;;;;;;;17.60;6.25;;;11.30;76.90;;;;;;5008338;28;20668;-68
2022/03/19 10:43:22;;;;;;;14.15;5.10;;;11.30;82.10;;;;;;5005810;28;20050;-68
2022/03/19 10:45:52;;;;;;;13.63;4.72;;;11.50;78.30;;;;;;5008479;28;20054;-68
2022/03/19 10:48:22;;;;;;;13.32;5.40;;;11.50;76.00;;;;;;5006620;28;20054;-68
2022/03/19 10:50:49;;;;;;;17.25;4.38;;;11.50;77.20;;;;;;5005822;28;20077;-67
2022/03/19 10:53:17;;;;;;;8.40;4.18;;;11.50;72.50;;;;;;5008075;28;20104;-68
2022/03/19 10:55:43;;;;;;;13.38;3.95;;;11.60;71.40;;;;;;5008923;28;20053;-68
2022/03/19 10:58:10;;;;;;;5.95;3.60;;;11.50;69.50;;;;;;5002397;28;20237;-68
2022/03/19 11:00:36;;;;;;;10.82;4.80;;;11.60;71.20;;;;;;5004039;28;20057;-68
2022/03/19 11:03:34;;;;;;;17.23;4.93;;;11.70;71.60;;;;;;5005925;28;20043;-68
2022/03/19 11:06:05;;;;;;;14.63;4.78;;;11.70;67.70;;;;;;4997037;28;20062;-69
2022/03/19 11:08:38;;;;;;;10.32;5.05;;;11.80;70.00;;;;;;5005113;28;20440;-69
2022/03/19 11:11:11;;;;;;;15.40;5.05;;;11.80;70.90;;;;;;5001156;28;20500;-68
2022/03/19 11:13:46;;;;;;;15.15;5.50;;;11.80;68.90;;;;;;5007997;28;20045;-68
2022/03/19 11:16:14;;;;;;;12.32;5.18;;;12.10;69.60;;;;;;5006832;28;20041;-69
2022/03/19 11:18:42;;;;;;;12.70;4.43;;;12.00;70.10;;;;;;5007419;28;20411;-68
2022/03/19 11:21:09;;;;;;;;;;;12.10;69.80;;;;;;5006909;28;20395;-68
2022/03/19 11:24:10;;;;;;;16.27;4.97;;;12.00;65.80;;;;;;5007795;28;19922;-67
2022/03/19 11:26:37;;;;;;;12.35;5.05;;;12.10;66.70;;;;;;5005157;28;20490;-67
2022/03/19 11:29:05;;;;;;;9.90;4.53;;;12.20;66.90;;;;;;5006585;28;20034;-67
2022/03/19 11:31:32;;;;;;;12.90;5.22;;;12.30;67.10;;;;;;5003721;28;20491;-69
2022/03/19 11:34:19;;;;;;;12.80;4.57;;;12.20;66.00;;;;;;5007168;28;20046;-67
2022/03/19 11:36:54;;;;;;;12.55;4.45;;;12.30;65.30;;;;;;5004903;28;20042;-67
2022/03/19 11:39:19;;;;;;;9.48;4.30;;;12.40;63.80;;;;;;5003060;28;20058;-67
2022/03/19 11:41:49;;;;;;;9.40;5.50;;;12.40;65.00;;;;;;5009765;28;20391;-67
2022/03/19 11:44:20;;;;;;;11.75;4.85;;;12.30;64.50;;;;;;5007994;28;20499;-66
2022/03/19 11:46:56;;;;;;;12.23;4.53;;;12.40;65.30;;;;;;5010820;28;20057;-66
2022/03/19 11:49:44;;;;;;;8.95;4.25;;;12.50;64.40;;;;;;5008049;28;20054;-66
2022/03/19 11:52:10;;;;;;;7.38;3.30;;;12.40;61.60;;;;;;5007376;28;20042;-67
2022/03/19 11:55:14;;;;;;;14.65;4.72;;;12.50;62.30;;;;;;5012212;28;20064;-68
2022/03/19 11:57:45;;;;;;;5.63;3.45;;;12.40;59.50;;;;;;4965604;28;20077;-68
2022/03/19 12:00:14;;;;;;;8.90;3.67;;;12.50;62.50;;;;;;5004548;28;20116;-68
2022/03/19 12:03:02;;;;;;;8.82;4.90;;;12.50;61.80;;;;;;5003912;28;20054;-67
2022/03/19 12:05:28;;;;;;;;;;;12.60;62.30;;;;;;5012004;28;20044;-67
2022/03/19 12:08:03;;;;;;;11.45;4.38;;;12.60;58.20;;;;;;5012330;28;19925;-67
2022/03/19 12:10:38;;;;;;;9.48;4.85;;;12.60;61.70;;;;;;5007331;28;20040;-67
2022/03/19 12:13:35;;;;;;;7.90;3.90;;;12.70;61.70;;;;;;5000544;28;20047;-67
2022/03/19 12:16:08;;;;;;;;;;;12.60;61.50;;;;;;5012033;28;20077;-67
2022/03/19 12:18:39;;;;;;;6.45;3.30;;;12.50;60.20;;;;;;5017880;28;19921;-67
2022/03/19 12:21:11;;;;;;;6.15;3.35;;;12.60;61.50;;;;;;5003297;28;20081;-67
2022/03/19 12:23:50;;;;;;;7.03;2.85;;;12.50;57.20;;;;;;5008586;28;20050;-67
2022/03/19 12:26:19;;;;;;;11.20;3.58;;;12.60;57.80;;;;;;5001665;28;20050;-67
2022/03/19 12:28:55;;;;;;;5.70;3.00;;;12.60;57.60;;;;;;5002536;28;20057;-67
2022/03/19 12:31:20;;;;;;;9.88;3.35;;;12.70;57.00;;;;;;5006050;28;20050;-67
2022/03/19 12:33:46;;;;;;;7.55;3.35;;;12.70;57.20;;;;;;5005930;28;20042;-67
2022/03/19 12:36:20;;;;;;;5.40;3.55;;;12.50;56.90;;;;;;5011959;28;20034;-67
2022/03/19 12:38:49;;;;;;;5.47;3.10;;;12.50;55.40;;;;;;5008230;28;20514;-67
2022/03/19 12:41:29;;;;;;;7.45;3.50;;;12.50;57.10;;;;;;5007339;28;20042;-67
2022/03/19 12:44:19;;;;;;;10.10;3.70;;;12.40;57.40;;;;;;5010551;28;20042;-67
2022/03/19 12:46:47;;;;;;;7.50;3.65;;;12.60;58.90;;;;;;5006965;28;20156;-67
2022/03/19 12:49:15;;;;;;;8.60;3.20;;;12.70;59.80;;;;;;5014607;28;20160;-67
2022/03/19 12:51:46;;;;;;;9.63;4.07;;;12.80;59.10;;;;;;5014171;28;20056;-67
2022/03/19 12:54:29;;;;;;;6.63;3.08;;;12.60;58.50;;;;;;5007298;28;20050;-67
2022/03/19 12:56:57;;;;;;;13.52;3.95;;;12.70;57.60;;;;;;5016166;28;20046;-67
2022/03/19 12:59:25;;;;;;;5.53;2.60;;;12.50;57.20;;;;;;5006586;28;20158;-67
2022/03/19 13:01:51;;;;;;;;;;;12.50;58.00;;;;;;5010209;28;20112;-67
2022/03/19 13:04:28;;;;;;;6.65;3.03;;;12.50;56.90;;;;;;5016775;28;19921;-67